Time;durP1;ratioP1;P1;durP2;ratioP2;P2;SDS_P1;SDS_P2;PMS_P1;PMS_P2;Temp;Humidity;BMP_temperature;BMP_pressure;BME280_temperature;BME280_humidity;BME280_pressure;Samples;Min_cycle;Max_cycle;Signal;HPM_P1;HPM_P2
2022/09/26 00:02:22;;;;;;;2.90;1.60;;;11.90;99.90;;;;;;5033302;28;20549;-64
2022/09/26 00:04:47;;;;;;;5.38;2.63;;;11.80;99.90;;;;;;5032170;28;20081;-64
2022/09/26 00:07:13;;;;;;;2.65;1.63;;;11.90;99.90;;;;;;5033330;28;20045;-64
2022/09/26 00:09:39;;;;;;;5.57;1.58;;;11.90;99.90;;;;;;5032088;28;20507;-64
2022/09/26 00:12:06;;;;;;;5.47;1.70;;;11.80;99.90;;;;;;5032184;28;20073;-64
2022/09/26 00:14:32;;;;;;;3.90;1.65;;;11.90;99.90;;;;;;5033076;28;20056;-64
2022/09/26 00:16:57;;;;;;;6.10;2.20;;;11.90;99.90;;;;;;5032172;28;20049;-64
2022/09/26 00:19:23;;;;;;;7.35;1.92;;;12.00;99.90;;;;;;5031875;28;20041;-64
2022/09/26 00:21:49;;;;;;;4.72;2.50;;;11.90;99.90;;;;;;5033145;28;20514;-64
2022/09/26 00:24:15;;;;;;;5.85;2.25;;;11.90;99.90;;;;;;5033199;28;20076;-64
2022/09/26 00:26:40;;;;;;;2.88;1.92;;;11.80;99.90;;;;;;5032972;28;20045;-64
2022/09/26 00:29:09;;;;;;;5.22;2.10;;;11.90;99.90;;;;;;5033120;28;20040;-64
2022/09/26 00:31:39;;;;;;;2.72;1.80;;;12.00;99.90;;;;;;5012259;28;20046;-64
2022/09/26 00:34:05;;;;;;;7.07;2.03;;;11.90;99.90;;;;;;5030887;28;20092;-64
2022/09/26 00:36:31;;;;;;;8.07;2.55;;;11.70;99.90;;;;;;5033037;28;20449;-64
2022/09/26 00:38:56;;;;;;;7.45;2.65;;;11.90;99.90;;;;;;5031856;28;20037;-64
2022/09/26 00:41:23;;;;;;;6.22;2.45;;;11.90;99.90;;;;;;5032944;28;20495;-64
2022/09/26 00:43:52;;;;;;;5.15;2.65;;;11.80;99.90;;;;;;5032835;28;20041;-64
2022/09/26 00:46:38;;;;;;;6.20;2.42;;;11.90;99.90;;;;;;5032996;28;20041;-64
2022/09/26 00:49:24;;;;;;;4.75;2.40;;;11.80;99.90;;;;;;5031591;28;20049;-64
2022/09/26 00:52:06;;;;;;;5.55;2.50;;;11.90;99.90;;;;;;5032846;28;20052;-64
2022/09/26 00:54:34;;;;;;;3.55;2.72;;;11.90;99.90;;;;;;5032670;28;20381;-64
2022/09/26 00:57:06;;;;;;;7.72;2.90;;;11.90;99.90;;;;;;5032963;28;20045;-64
2022/09/26 00:59:35;;;;;;;6.05;2.95;;;11.70;99.90;;;;;;5031516;28;20042;-64
2022/09/26 01:02:02;;;;;;;5.10;2.72;;;11.80;99.90;;;;;;5032978;28;20368;-64
2022/09/26 01:04:31;;;;;;;4.72;2.65;;;11.70;99.90;;;;;;5031395;28;20041;-64
2022/09/26 01:06:59;;;;;;;5.50;2.83;;;11.80;99.90;;;;;;5032541;28;20045;-64
2022/09/26 01:09:25;;;;;;;7.20;2.50;;;11.80;99.90;;;;;;5032755;28;20069;-64
2022/09/26 01:11:52;;;;;;;5.35;2.78;;;11.80;99.90;;;;;;5032469;28;20531;-64
2022/09/26 01:14:18;;;;;;;6.15;2.92;;;11.90;99.90;;;;;;5031241;28;20049;-64
2022/09/26 01:16:47;;;;;;;7.65;2.95;;;11.80;99.90;;;;;;5032543;28;20115;-64
2022/09/26 01:19:25;;;;;;;9.02;3.28;;;11.80;99.90;;;;;;5033043;28;20037;-64
2022/09/26 01:22:17;;;;;;;8.00;3.22;;;11.80;99.90;;;;;;5032484;28;20404;-64
2022/09/26 01:25:18;;;;;;;6.45;2.70;;;11.90;99.90;;;;;;5031372;28;20072;-64
2022/09/26 01:28:01;;;;;;;5.10;3.13;;;11.90;99.90;;;;;;5031226;28;20045;-64
2022/09/26 01:30:39;;;;;;;8.38;3.38;;;11.60;99.90;;;;;;5031119;28;20561;-64
2022/09/26 01:33:40;;;;;;;7.05;3.47;;;11.70;99.90;;;;;;5031237;28;20088;-64
2022/09/26 01:36:15;;;;;;;8.90;3.40;;;11.80;99.90;;;;;;5020608;28;20399;-64
2022/09/26 01:39:06;;;;;;;6.75;3.38;;;11.70;99.90;;;;;;5031130;28;20444;-64
2022/09/26 01:41:51;;;;;;;4.03;3.15;;;11.90;99.90;;;;;;4981816;28;20535;-64
2022/09/26 01:44:35;;;;;;;9.00;3.07;;;11.80;99.90;;;;;;5030868;28;20045;-64
2022/09/26 01:47:13;;;;;;;6.28;2.75;;;11.80;99.90;;;;;;5031421;28;20495;-64
2022/09/26 01:49:47;;;;;;;4.47;2.97;;;12.00;99.90;;;;;;5034834;28;20041;-64
2022/09/26 01:52:45;;;;;;;6.45;3.15;;;11.90;99.90;;;;;;5035909;28;20045;-64
2022/09/26 01:55:20;;;;;;;6.30;2.53;;;11.80;99.90;;;;;;5008902;28;20057;-64
2022/09/26 01:58:04;;;;;;;10.60;4.43;;;11.70;99.90;;;;;;5034605;28;20552;-64
2022/09/26 02:00:32;;;;;;;6.07;2.70;;;11.80;99.90;;;;;;5034783;28;20046;-64
2022/09/26 02:02:59;;;;;;;6.43;2.53;;;11.90;99.90;;;;;;5034213;28;20411;-64
2022/09/26 02:05:40;;;;;;;3.83;2.53;;;11.80;99.90;;;;;;5035800;28;20048;-64
2022/09/26 02:08:27;;;;;;;7.50;2.58;;;11.80;99.90;;;;;;5034619;28;20381;-64
2022/09/26 02:11:01;;;;;;;4.70;2.75;;;11.80;99.90;;;;;;5034611;28;20419;-64
2022/09/26 02:13:43;;;;;;;6.50;2.58;;;11.90;99.90;;;;;;5035006;28;20042;-64
2022/09/26 02:16:14;;;;;;;6.13;2.55;;;11.70;99.90;;;;;;5034296;28;20067;-64
2022/09/26 02:18:55;;;;;;;6.55;2.72;;;11.70;99.90;;;;;;5034106;28;20038;-64
2022/09/26 02:21:22;;;;;;;6.93;2.55;;;11.60;99.90;;;;;;5035737;28;20099;-64
2022/09/26 02:23:49;;;;;;;7.07;2.67;;;11.80;99.90;;;;;;5035116;28;20041;-64
2022/09/26 02:26:15;;;;;;;6.63;3.22;;;11.70;99.90;;;;;;5035441;28;20045;-64
2022/09/26 02:28:41;;;;;;;6.93;2.95;;;12.10;99.90;;;;;;5034186;28;20703;-64
2022/09/26 02:31:08;;;;;;;7.32;2.92;;;11.70;99.90;;;;;;5035206;28;20487;-64
2022/09/26 02:33:35;;;;;;;5.90;3.40;;;11.80;99.90;;;;;;5026725;28;20029;-64
2022/09/26 02:36:04;;;;;;;8.15;3.60;;;11.70;99.90;;;;;;5034897;28;20121;-64
2022/09/26 02:38:30;;;;;;;6.70;3.20;;;11.60;99.90;;;;;;5033576;28;20447;-64
2022/09/26 02:41:07;;;;;;;8.20;3.90;;;11.70;99.90;;;;;;5033344;28;20033;-64
2022/09/26 02:43:38;;;;;;;10.20;3.72;;;11.70;99.90;;;;;;5030858;28;20048;-64
2022/09/26 02:46:42;;;;;;;10.48;4.65;;;11.70;99.90;;;;;;5033788;28;20140;-64
2022/09/26 02:49:32;;;;;;;6.88;3.88;;;11.90;99.90;;;;;;5015089;28;20040;-64
2022/09/26 02:52:34;;;;;;;10.45;4.40;;;11.60;99.90;;;;;;5029821;28;20406;-64
2022/09/26 02:55:25;;;;;;;6.78;4.40;;;11.90;99.90;;;;;;5022578;28;20128;-64
2022/09/26 02:57:50;;;;;;;14.50;4.65;;;11.70;99.90;;;;;;5015045;28;20041;-64
2022/09/26 03:00:25;;;;;;;6.25;4.13;;;11.70;99.90;;;;;;5012794;28;20046;-64
2022/09/26 03:03:15;;;;;;;9.48;5.15;;;11.80;99.90;;;;;;5013834;28;20038;-64
2022/09/26 03:05:44;;;;;;;7.95;5.03;;;11.70;99.90;;;;;;5015046;28;20063;-64
2022/09/26 03:08:19;;;;;;;8.75;4.93;;;11.60;99.90;;;;;;5021271;28;20346;-64
2022/09/26 03:10:46;;;;;;;12.50;5.43;;;11.60;99.90;;;;;;5031933;28;20054;-64
2022/09/26 03:13:15;;;;;;;11.70;4.70;;;11.80;99.90;;;;;;5013480;28;20076;-64
2022/09/26 03:15:45;;;;;;;11.48;5.43;;;11.80;99.90;;;;;;5013309;28;20056;-64
2022/09/26 03:18:18;;;;;;;10.23;5.18;;;11.70;99.90;;;;;;5014422;28;20037;-64
2022/09/26 03:20:43;;;;;;;10.55;5.60;;;11.60;99.90;;;;;;5014699;28;20044;-64
2022/09/26 03:23:09;;;;;;;10.23;5.07;;;11.70;99.90;;;;;;5013073;28;20492;-64
2022/09/26 03:25:35;;;;;;;6.85;5.18;;;11.70;99.90;;;;;;5014485;28;20092;-64
2022/09/26 03:28:01;;;;;;;6.32;4.60;;;11.70;99.90;;;;;;5016614;28;20091;-64
2022/09/26 03:30:28;;;;;;;7.43;4.93;;;11.70;99.90;;;;;;5034053;28;20503;-64
2022/09/26 03:32:54;;;;;;;6.78;4.55;;;11.70;99.90;;;;;;5031921;28;20037;-64
2022/09/26 03:35:19;;;;;;;7.18;4.13;;;11.70;99.90;;;;;;5012932;28;20508;-64
2022/09/26 03:37:46;;;;;;;12.75;5.10;;;11.70;99.90;;;;;;5014155;28;20048;-64
2022/09/26 03:40:12;;;;;;;8.15;4.55;;;11.60;99.90;;;;;;5014035;28;20040;-64
2022/09/26 03:42:38;;;;;;;9.05;5.05;;;11.60;99.90;;;;;;5023343;28;20042;-64
2022/09/26 03:45:07;;;;;;;9.13;5.40;;;11.70;99.90;;;;;;5033588;28;20041;-64
2022/09/26 03:47:33;;;;;;;9.02;4.88;;;11.60;99.90;;;;;;5033690;28;20037;-64
2022/09/26 03:49:59;;;;;;;9.88;5.43;;;11.70;99.90;;;;;;5032354;28;20042;-64
2022/09/26 03:52:25;;;;;;;9.55;5.28;;;11.50;99.90;;;;;;5012895;28;20550;-64
2022/09/26 03:54:52;;;;;;;6.25;4.32;;;11.60;99.90;;;;;;5013691;28;20552;-64
2022/09/26 03:57:18;;;;;;;5.78;4.72;;;11.50;99.90;;;;;;5012800;28;20396;-64
2022/09/26 03:59:44;;;;;;;14.77;4.90;;;11.70;99.90;;;;;;5013683;28;20038;-64
2022/09/26 04:02:11;;;;;;;10.60;5.22;;;11.60;99.90;;;;;;5030857;28;20400;-64
2022/09/26 04:04:37;;;;;;;6.25;4.60;;;11.40;99.90;;;;;;5023987;28;20084;-64
2022/09/26 04:07:03;;;;;;;6.57;5.55;;;11.60;99.90;;;;;;5026163;28;20126;-64
2022/09/26 04:09:29;;;;;;;9.65;5.03;;;11.60;99.90;;;;;;5012391;28;20566;-64
2022/09/26 04:11:54;;;;;;;8.45;5.50;;;11.50;99.90;;;;;;5013233;28;20038;-64
2022/09/26 04:14:20;;;;;;;7.25;5.10;;;11.40;99.90;;;;;;5011886;28;20050;-64
2022/09/26 04:16:46;;;;;;;10.50;5.63;;;11.50;99.90;;;;;;5013361;28;20058;-64
2022/09/26 04:19:12;;;;;;;10.45;5.57;;;11.40;99.90;;;;;;5013537;28;20471;-64
2022/09/26 04:21:40;;;;;;;10.30;5.85;;;11.50;99.90;;;;;;5012529;28;20049;-64
2022/09/26 04:24:07;;;;;;;10.73;5.32;;;11.50;99.90;;;;;;5012320;28;20041;-64
2022/09/26 04:26:32;;;;;;;14.35;5.68;;;11.50;99.90;;;;;;5012413;28;20046;-64
2022/09/26 04:28:58;;;;;;;10.18;6.35;;;11.50;99.90;;;;;;5013185;28;20080;-64
2022/09/26 04:31:26;;;;;;;12.60;6.00;;;11.50;99.90;;;;;;5012136;28;20050;-64
2022/09/26 04:33:54;;;;;;;7.45;5.10;;;11.50;99.90;;;;;;5013212;28;20099;-64
2022/09/26 04:36:20;;;;;;;10.52;5.97;;;11.50;99.90;;;;;;5013214;28;20033;-64
2022/09/26 04:38:46;;;;;;;9.73;5.70;;;11.30;99.90;;;;;;5013333;28;20038;-64
2022/09/26 04:41:12;;;;;;;7.57;5.70;;;11.50;99.90;;;;;;5011829;28;20548;-64
2022/09/26 04:43:38;;;;;;;9.82;6.13;;;11.60;99.90;;;;;;5027186;28;20415;-64
2022/09/26 04:46:10;;;;;;;8.65;5.57;;;11.40;99.90;;;;;;5032819;28;20380;-64
2022/09/26 04:48:36;;;;;;;12.73;5.97;;;11.40;99.90;;;;;;5013804;28;20034;-64
2022/09/26 04:51:10;;;;;;;8.73;5.90;;;11.40;99.90;;;;;;5013111;28;20108;-64
2022/09/26 04:53:37;;;;;;;7.97;5.85;;;11.40;99.90;;;;;;5011899;28;20065;-64
2022/09/26 04:56:03;;;;;;;9.30;5.80;;;11.30;99.90;;;;;;5011757;28;20046;-64
2022/09/26 04:58:29;;;;;;;10.73;5.88;;;11.30;99.90;;;;;;5011607;28;20096;-64
2022/09/26 05:00:55;;;;;;;7.68;5.68;;;11.30;99.90;;;;;;5013169;28;20041;-64
2022/09/26 05:03:20;;;;;;;10.50;5.72;;;11.30;99.90;;;;;;5013160;28;20141;-64
2022/09/26 05:05:46;;;;;;;11.55;6.28;;;11.30;99.90;;;;;;5030741;28;20180;-64
2022/09/26 05:08:13;;;;;;;12.68;6.47;;;11.30;99.90;;;;;;5031345;28;20487;-64
2022/09/26 05:10:40;;;;;;;10.60;6.03;;;11.30;99.90;;;;;;5015259;28;20519;-64
2022/09/26 05:13:06;;;;;;;9.32;5.68;;;11.30;99.90;;;;;;5012796;28;20116;-64
2022/09/26 05:15:38;;;;;;;10.55;6.13;;;11.30;99.90;;;;;;5012578;28;20143;-64
2022/09/26 05:18:06;;;;;;;8.80;5.70;;;11.20;99.90;;;;;;5011724;28;20045;-64
2022/09/26 05:20:33;;;;;;;8.23;5.95;;;11.40;99.90;;;;;;5011479;28;20049;-64
2022/09/26 05:22:59;;;;;;;15.10;5.70;;;11.30;99.90;;;;;;5011764;28;20069;-64
2022/09/26 05:28:12;;;;;;;12.48;6.20;;;11.20;99.90;;;;;;5015378;28;20053;-64
2022/09/26 05:30:39;;;;;;;8.77;5.25;;;11.30;99.90;;;;;;5016734;28;20037;-64
2022/09/26 05:33:05;;;;;;;8.60;6.10;;;11.20;99.90;;;;;;5016512;28;20407;-64
2022/09/26 05:35:34;;;;;;;7.22;5.78;;;11.20;99.90;;;;;;5016404;28;20121;-64
2022/09/26 05:38:01;;;;;;;8.50;5.45;;;11.30;99.90;;;;;;4998657;28;20034;-64
2022/09/26 05:43:11;;;;;;;11.95;6.13;;;11.20;99.90;;;;;;5030065;28;20503;-64
2022/09/26 05:45:37;;;;;;;10.10;5.80;;;11.30;99.90;;;;;;5034359;28;20116;-64
2022/09/26 05:48:04;;;;;;;10.10;6.13;;;11.20;99.90;;;;;;5028471;28;20450;-64
2022/09/26 05:50:31;;;;;;;7.65;6.03;;;11.20;99.90;;;;;;5035770;28;20041;-64
2022/09/26 05:52:57;;;;;;;11.63;6.85;;;11.10;99.90;;;;;;5034601;28;20128;-64
2022/09/26 05:55:24;;;;;;;9.40;6.10;;;11.10;99.90;;;;;;5035597;28;20137;-64
2022/09/26 05:57:51;;;;;;;12.57;6.72;;;11.10;99.90;;;;;;5035812;28;20092;-64
2022/09/26 06:00:16;;;;;;;12.90;6.43;;;11.10;99.90;;;;;;5035749;28;20040;-64
2022/09/26 06:02:42;;;;;;;8.77;6.38;;;11.10;99.90;;;;;;5034308;28;20501;-64
2022/09/26 06:05:08;;;;;;;15.65;6.55;;;11.10;99.90;;;;;;5034284;28;20049;-64
2022/09/26 06:07:33;;;;;;;13.18;6.40;;;11.10;99.90;;;;;;5028297;28;20037;-64
2022/09/26 06:09:59;;;;;;;13.02;6.47;;;10.90;99.90;;;;;;5035626;28;20040;-64
2022/09/26 06:12:27;;;;;;;9.65;6.10;;;11.00;99.90;;;;;;5034326;28;20419;-64
2022/09/26 06:14:53;;;;;;;12.13;5.50;;;11.00;99.90;;;;;;5030552;28;20136;-63
2022/09/26 06:17:19;;;;;;;8.85;5.40;;;11.00;99.90;;;;;;5052988;28;20125;-63
2022/09/26 06:19:45;;;;;;;8.55;5.63;;;;;;;;;;5035184;28;20034;-64
2022/09/26 06:22:10;;;;;;;12.50;5.30;;;10.90;99.90;;;;;;5035027;28;20033;-64
2022/09/26 06:24:36;;;;;;;8.65;6.03;;;11.00;99.90;;;;;;5035283;28;20040;-64
2022/09/26 06:27:01;;;;;;;11.48;5.55;;;11.10;99.90;;;;;;5034851;28;20049;-64
2022/09/26 06:29:28;;;;;;;10.07;5.75;;;11.00;99.90;;;;;;5033733;28;20045;-64
2022/09/26 06:31:53;;;;;;;9.65;5.97;;;10.90;99.90;;;;;;5033680;28;20416;-64
2022/09/26 06:34:19;;;;;;;11.00;6.18;;;11.00;99.90;;;;;;5034786;28;20048;-64
2022/09/26 06:36:45;;;;;;;9.95;6.07;;;;;;;;;;5034805;28;20041;-64
2022/09/26 06:39:11;;;;;;;9.63;5.80;;;10.90;99.90;;;;;;5035351;28;20044;-64
2022/09/26 06:41:37;;;;;;;9.65;7.63;;;11.00;99.90;;;;;;5034648;28;20427;-64
2022/09/26 06:44:03;;;;;;;8.98;5.15;;;10.90;99.90;;;;;;5028837;28;20113;-64
2022/09/26 06:46:30;;;;;;;9.10;6.38;;;11.10;99.90;;;;;;5034472;28;20102;-65
2022/09/26 06:48:56;;;;;;;9.02;5.43;;;10.80;99.90;;;;;;5014121;28;20103;-63
2022/09/26 06:51:22;;;;;;;10.18;5.25;;;10.90;99.90;;;;;;5013822;28;20049;-63
2022/09/26 06:53:48;;;;;;;8.13;4.97;;;11.00;99.90;;;;;;5014729;28;20041;-64
2022/09/26 06:56:13;;;;;;;6.85;4.95;;;11.10;99.90;;;;;;5013658;28;20050;-64
2022/09/26 06:58:39;;;;;;;9.38;4.68;;;11.00;99.90;;;;;;5014932;28;20042;-63
2022/09/26 07:01:05;;;;;;;7.95;4.47;;;10.90;99.90;;;;;;5020626;28;20380;-63
2022/09/26 07:03:31;;;;;;;8.90;5.43;;;10.70;99.90;;;;;;5034110;28;20461;-63
2022/09/26 07:05:57;;;;;;;8.50;4.97;;;10.80;99.90;;;;;;5034345;28;20072;-63
2022/09/26 07:08:24;;;;;;;6.75;5.05;;;10.80;99.90;;;;;;5034436;28;20087;-63
2022/09/26 07:10:50;;;;;;;10.68;4.63;;;10.90;99.90;;;;;;5033088;28;20544;-63
2022/09/26 07:13:16;;;;;;;8.45;4.32;;;10.90;99.90;;;;;;5034063;28;20117;-64
2022/09/26 07:15:44;;;;;;;9.32;4.80;;;10.80;99.90;;;;;;5031952;28;20132;-63
2022/09/26 07:18:10;;;;;;;5.55;4.57;;;10.90;99.90;;;;;;5033207;28;20051;-63
2022/09/26 07:20:44;;;;;;;5.93;4.25;;;10.90;99.90;;;;;;5034135;28;20064;-63
2022/09/26 07:23:10;;;;;;;6.72;4.53;;;11.00;99.90;;;;;;5034475;28;20369;-63
2022/09/26 07:25:37;;;;;;;9.30;3.60;;;10.90;99.90;;;;;;5016247;28;20044;-63
2022/09/26 07:28:03;;;;;;;6.40;4.25;;;10.90;99.90;;;;;;5033891;28;20048;-63
2022/09/26 07:30:29;;;;;;;6.82;4.30;;;11.00;99.90;;;;;;5034063;28;20091;-63
2022/09/26 07:33:02;;;;;;;7.30;4.00;;;11.00;99.90;;;;;;5032777;28;20049;-63
2022/09/26 07:35:29;;;;;;;11.82;3.95;;;11.10;99.90;;;;;;5033881;28;20038;-63
2022/09/26 07:37:54;;;;;;;11.30;5.40;;;11.10;99.90;;;;;;5032284;28;20500;-63
2022/09/26 07:40:21;;;;;;;8.65;3.20;;;11.20;99.90;;;;;;5033850;28;20036;-63
2022/09/26 07:42:47;;;;;;;7.90;4.03;;;11.10;99.90;;;;;;5033712;28;20094;-63
2022/09/26 07:45:13;;;;;;;9.95;4.78;;;11.10;99.90;;;;;;5028610;28;20120;-65
2022/09/26 07:50:23;;;;;;;7.13;3.70;;;11.20;99.90;;;;;;5013079;28;20408;-64
2022/09/26 07:52:49;;;;;;;10.23;3.85;;;11.30;99.90;;;;;;5021568;28;20033;-65
2022/09/26 07:55:24;;;;;;;7.20;3.53;;;11.40;99.90;;;;;;5032432;28;20120;-64
2022/09/26 07:57:49;;;;;;;5.13;3.55;;;11.40;99.90;;;;;;5032134;28;20033;-65
2022/09/26 08:00:19;;;;;;;5.28;3.25;;;11.20;99.90;;;;;;5030992;28;20044;-64
2022/09/26 08:02:45;;;;;;;5.93;3.38;;;11.30;99.90;;;;;;5031103;28;20037;-64
2022/09/26 08:05:18;;;;;;;6.75;4.35;;;11.40;99.90;;;;;;5033035;28;20091;-65
2022/09/26 08:07:45;;;;;;;5.88;3.42;;;11.40;99.90;;;;;;5029997;28;20125;-66
2022/09/26 08:10:20;;;;;;;7.38;4.28;;;11.40;99.90;;;;;;5033092;28;20108;-65
2022/09/26 08:12:46;;;;;;;;;;;11.50;99.90;;;;;;5025162;28;20072;-65
2022/09/26 08:15:13;;;;;;;9.45;3.28;;;11.40;99.90;;;;;;5031726;28;19968;-65
2022/09/26 08:17:39;;;;;;;5.68;3.60;;;11.50;99.90;;;;;;5015677;28;20041;-65
2022/09/26 08:20:06;;;;;;;5.82;3.00;;;11.50;99.90;;;;;;5033144;28;20041;-65
2022/09/26 08:22:32;;;;;;;6.07;3.28;;;11.60;99.90;;;;;;5031734;28;20084;-64
2022/09/26 08:24:59;;;;;;;8.13;3.63;;;11.60;99.90;;;;;;5033110;28;20457;-65
2022/09/26 08:27:25;;;;;;;7.43;3.22;;;;;;;;;;5031512;28;20553;-65
2022/09/26 08:29:50;;;;;;;7.18;3.17;;;11.50;99.90;;;;;;5033013;28;20045;-64
2022/09/26 08:32:18;;;;;;;6.97;3.50;;;11.60;99.90;;;;;;5031683;28;20045;-64
2022/09/26 08:34:44;;;;;;;6.60;3.42;;;11.60;99.90;;;;;;5031490;28;20053;-65
2022/09/26 08:37:10;;;;;;;7.15;3.92;;;11.60;99.90;;;;;;5031520;28;20037;-65
2022/09/26 08:39:35;;;;;;;7.65;3.60;;;11.70;99.90;;;;;;5031557;28;20033;-65
2022/09/26 08:42:27;;;;;;;8.38;3.53;;;11.70;99.90;;;;;;5031660;28;20087;-65
2022/09/26 08:46:14;;;;;;;9.05;3.67;;;11.80;99.90;;;;;;5027989;28;20041;-65
2022/09/26 08:47:57;;;;;;;7.88;3.60;;;11.70;99.90;;;;;;5020391;28;20534;-65
2022/09/26 08:50:46;;;;;;;5.85;3.10;;;11.70;99.90;;;;;;5031391;28;20041;-63
2022/09/26 08:53:17;;;;;;;6.18;3.30;;;11.90;99.90;;;;;;5032926;28;20041;-63
2022/09/26 08:55:46;;;;;;;5.10;3.25;;;12.00;99.90;;;;;;5013131;28;20068;-63
2022/09/26 08:58:25;;;;;;;7.78;3.33;;;12.00;99.90;;;;;;5012072;28;20042;-63
2022/09/26 09:00:56;;;;;;;5.13;3.25;;;12.00;99.90;;;;;;5022804;28;20064;-63
2022/09/26 09:03:35;;;;;;;7.30;3.42;;;12.00;99.90;;;;;;5036757;28;20048;-63
2022/09/26 09:06:00;;;;;;;8.70;3.80;;;12.00;99.90;;;;;;5036996;28;20045;-64
2022/09/26 09:08:39;;;;;;;6.13;3.55;;;12.20;99.90;;;;;;5035690;28;20052;-63
2022/09/26 09:11:20;;;;;;;7.43;3.10;;;12.10;99.90;;;;;;5016012;28;20396;-63
2022/09/26 09:14:03;;;;;;;6.43;3.10;;;12.30;99.90;;;;;;5016633;28;20518;-64
2022/09/26 09:16:52;;;;;;;4.43;3.45;;;12.20;99.90;;;;;;5016888;28;20045;-63
2022/09/26 09:19:30;;;;;;;7.50;3.88;;;12.10;99.90;;;;;;5033923;28;20041;-64
2022/09/26 09:22:26;;;;;;;9.40;3.33;;;12.10;99.90;;;;;;5024137;28;20377;-65
2022/09/26 09:24:59;;;;;;;5.07;3.40;;;12.30;99.90;;;;;;5016688;28;20104;-65
2022/09/26 09:27:36;;;;;;;6.95;3.70;;;12.20;99.90;;;;;;5016727;28;20074;-65
2022/09/26 09:30:11;;;;;;;7.65;3.05;;;12.20;99.90;;;;;;5016622;28;20136;-65
2022/09/26 09:32:44;;;;;;;7.15;3.22;;;12.30;99.90;;;;;;5015304;28;20077;-65
2022/09/26 09:35:14;;;;;;;6.93;3.60;;;12.20;99.90;;;;;;5015328;28;20046;-66
2022/09/26 09:37:45;;;;;;;7.70;3.67;;;12.10;99.90;;;;;;5015033;28;20399;-65
2022/09/26 09:40:21;;;;;;;7.50;3.55;;;12.20;99.90;;;;;;5024789;28;20534;-65
2022/09/26 09:42:54;;;;;;;6.13;3.53;;;12.20;99.90;;;;;;5035939;28;20460;-63
2022/09/26 09:45:44;;;;;;;9.10;4.07;;;12.30;99.90;;;;;;5031184;28;20045;-65
2022/09/26 09:48:12;;;;;;;8.82;3.67;;;12.30;99.90;;;;;;5020546;28;20049;-64
2022/09/26 09:50:57;;;;;;;9.98;4.07;;;12.20;99.90;;;;;;5016309;28;20041;-63
2022/09/26 09:53:43;;;;;;;12.77;4.75;;;12.20;99.90;;;;;;5015882;28;20119;-63
2022/09/26 09:56:27;;;;;;;8.82;4.43;;;12.20;99.90;;;;;;5014157;28;20064;-63
2022/09/26 09:59:15;;;;;;;8.18;4.07;;;12.10;99.90;;;;;;5016190;28;20047;-64
2022/09/26 10:01:44;;;;;;;10.30;4.50;;;12.10;99.90;;;;;;5014572;28;20500;-64
2022/09/26 10:04:35;;;;;;;8.05;4.45;;;11.90;99.90;;;;;;5016022;28;20049;-63
2022/09/26 10:07:02;;;;;;;9.90;4.97;;;11.90;99.90;;;;;;5014794;28;20073;-63
2022/09/26 10:09:37;;;;;;;10.18;4.68;;;12.00;99.90;;;;;;5025424;28;20037;-63
2022/09/26 10:12:15;;;;;;;9.43;4.90;;;11.70;99.90;;;;;;5020753;28;20116;-65
2022/09/26 10:14:48;;;;;;;9.52;4.68;;;11.80;99.90;;;;;;5023815;28;20057;-65
2022/09/26 10:17:17;;;;;;;9.38;4.97;;;11.90;99.90;;;;;;5035363;28;20050;-65
2022/09/26 10:19:43;;;;;;;9.30;5.03;;;11.90;99.90;;;;;;5034728;28;20056;-65
2022/09/26 10:22:31;;;;;;;10.95;5.00;;;11.60;99.90;;;;;;5021147;28;20046;-65
2022/09/26 10:25:19;;;;;;;7.18;4.75;;;11.80;99.90;;;;;;5014657;28;20484;-65
2022/09/26 10:27:52;;;;;;;8.65;4.53;;;11.90;99.90;;;;;;5015612;28;20048;-65
2022/09/26 10:30:17;;;;;;;7.88;4.45;;;11.90;99.90;;;;;;5014443;28;20068;-65
2022/09/26 10:32:49;;;;;;;6.82;4.20;;;11.90;99.90;;;;;;5014007;28;20484;-65
2022/09/26 10:35:19;;;;;;;9.35;4.55;;;11.90;99.90;;;;;;5015408;28;20088;-65
2022/09/26 10:38:04;;;;;;;8.70;4.57;;;11.90;99.90;;;;;;5017022;28;20042;-65
2022/09/26 10:40:46;;;;;;;5.93;4.38;;;11.90;99.90;;;;;;5033527;28;20045;-65
2022/09/26 10:43:36;;;;;;;10.38;4.78;;;11.90;99.90;;;;;;5032041;28;20042;-65
2022/09/26 10:46:16;;;;;;;11.20;4.72;;;11.90;99.90;;;;;;5034599;28;20064;-65
2022/09/26 10:48:55;;;;;;;10.98;4.35;;;11.80;99.90;;;;;;5035083;28;20045;-65
2022/09/26 10:51:28;;;;;;;8.20;4.63;;;11.90;99.90;;;;;;5021212;28;20046;-65
2022/09/26 10:54:03;;;;;;;8.18;4.70;;;11.90;99.90;;;;;;5026599;28;20077;-65
2022/09/26 10:56:34;;;;;;;6.43;4.63;;;12.00;99.90;;;;;;5037421;28;20511;-65
2022/09/26 10:59:07;;;;;;;6.13;5.10;;;11.80;99.90;;;;;;5013640;28;20042;-65
2022/09/26 11:01:40;;;;;;;5.22;4.10;;;12.10;99.90;;;;;;5026041;28;20124;-65
2022/09/26 11:07:17;;;;;;;8.55;5.30;;;11.90;99.90;;;;;;5014775;28;20053;-65
2022/09/26 11:09:45;;;;;;;6.00;5.05;;;11.90;99.90;;;;;;5027110;28;20087;-65
2022/09/26 11:12:28;;;;;;;14.02;5.43;;;11.80;99.90;;;;;;5024706;28;20069;-66
2022/09/26 11:15:00;;;;;;;7.07;4.80;;;12.00;99.90;;;;;;5030100;28;20132;-65
2022/09/26 11:17:46;;;;;;;6.75;4.13;;;12.30;99.90;;;;;;5032735;28;20411;-65
2022/09/26 11:20:44;;;;;;;9.40;5.00;;;12.10;99.90;;;;;;5023343;28;20109;-65
2022/09/26 11:23:30;;;;;;;7.72;5.35;;;12.10;99.90;;;;;;5013215;28;20040;-65
2022/09/26 11:26:05;;;;;;;8.55;5.20;;;12.10;99.90;;;;;;5015609;28;20045;-65
2022/09/26 11:29:17;;;;;;;8.82;5.05;;;12.00;99.90;;;;;;5013035;28;20038;-65
2022/09/26 11:31:45;;;;;;;9.18;5.22;;;12.00;99.90;;;;;;5009789;28;20053;-65
2022/09/26 11:34:15;;;;;;;6.97;4.63;;;12.00;99.90;;;;;;5014925;28;20045;-64
2022/09/26 11:37:03;;;;;;;7.63;4.70;;;12.00;99.90;;;;;;5014518;28;20073;-65
2022/09/26 11:39:42;;;;;;;7.57;5.60;;;12.10;99.90;;;;;;5018048;28;20399;-65
2022/09/26 11:42:23;;;;;;;8.13;5.38;;;12.00;99.90;;;;;;5016257;28;20036;-65
2022/09/26 11:44:57;;;;;;;8.05;5.43;;;12.10;99.90;;;;;;5017276;28;20457;-65
2022/09/26 11:48:04;;;;;;;7.82;5.78;;;12.10;99.90;;;;;;5012194;28;20515;-65
2022/09/26 11:50:38;;;;;;;9.93;5.05;;;12.10;99.90;;;;;;4967316;28;20505;-64
2022/09/26 11:53:23;;;;;;;7.43;5.40;;;12.20;99.90;;;;;;5020077;28;20045;-65
2022/09/26 11:56:24;;;;;;;7.93;4.88;;;12.40;99.90;;;;;;5030386;28;20042;-65
2022/09/26 11:58:58;;;;;;;8.48;5.75;;;12.20;99.90;;;;;;4947065;28;20080;-65
2022/09/26 12:01:54;;;;;;;9.47;5.70;;;12.00;99.90;;;;;;5031561;28;20057;-64
2022/09/26 12:04:35;;;;;;;8.60;5.50;;;12.10;99.90;;;;;;5026997;28;20042;-64
2022/09/26 12:07:27;;;;;;;8.20;5.15;;;12.20;99.90;;;;;;5030556;28;20052;-64
2022/09/26 12:10:13;;;;;;;8.77;5.00;;;12.00;99.90;;;;;;5023850;28;20059;-65
2022/09/26 12:12:59;;;;;;;8.82;5.93;;;12.20;99.90;;;;;;5031807;28;20073;-65
2022/09/26 12:15:56;;;;;;;9.88;5.47;;;12.20;99.90;;;;;;5032630;28;20049;-65
2022/09/26 12:18:59;;;;;;;9.45;5.43;;;12.30;99.90;;;;;;5031707;28;20034;-65
2022/09/26 12:22:27;;;;;;;8.65;6.50;;;12.30;99.90;;;;;;5027354;28;20049;-66
2022/09/26 12:24:59;;;;;;;8.43;4.97;;;12.20;99.90;;;;;;5030625;28;20037;-66
2022/09/26 12:27:37;;;;;;;6.88;5.35;;;12.50;99.90;;;;;;5032101;28;20041;-65
2022/09/26 12:30:13;;;;;;;8.13;5.22;;;12.50;99.90;;;;;;5029539;28;20045;-65
2022/09/26 12:33:03;;;;;;;7.68;4.93;;;12.30;99.90;;;;;;5031148;28;20037;-65
2022/09/26 12:35:37;;;;;;;6.72;5.10;;;12.30;99.90;;;;;;5032649;28;20120;-66
2022/09/26 12:38:20;;;;;;;5.07;4.40;;;12.50;99.90;;;;;;5031852;28;20515;-66
2022/09/26 12:41:02;;;;;;;7.13;6.13;;;12.40;99.90;;;;;;5031351;28;20049;-65
2022/09/26 12:43:53;;;;;;;5.07;4.57;;;12.40;99.90;;;;;;5027114;28;20034;-64
2022/09/26 12:46:53;;;;;;;9.00;5.10;;;12.20;99.90;;;;;;5035363;28;20053;-63
2022/09/26 12:49:33;;;;;;;7.13;4.95;;;12.20;99.90;;;;;;5021851;28;20069;-63
2022/09/26 12:52:13;;;;;;;6.88;4.90;;;;;;;;;;5013685;28;20069;-63
2022/09/26 12:54:57;;;;;;;5.63;4.47;;;12.40;99.90;;;;;;5007179;28;20053;-63
2022/09/26 12:57:40;;;;;;;5.15;4.13;;;12.30;99.90;;;;;;5012830;28;20050;-63
2022/09/26 13:00:17;;;;;;;5.70;4.53;;;12.20;99.90;;;;;;5029395;28;20128;-64
2022/09/26 13:03:34;;;;;;;8.02;4.55;;;12.50;99.90;;;;;;5026236;28;20049;-64
2022/09/26 13:06:12;;;;;;;5.57;4.60;;;12.50;99.90;;;;;;4990591;28;20056;-63
2022/09/26 13:08:46;;;;;;;5.70;4.55;;;12.70;99.90;;;;;;5031494;28;20049;-63
2022/09/26 13:11:24;;;;;;;6.40;4.40;;;12.80;99.90;;;;;;5029319;28;20045;-63
2022/09/26 13:14:12;;;;;;;7.15;4.45;;;12.90;99.90;;;;;;5020188;28;20046;-66
2022/09/26 13:17:04;;;;;;;7.57;4.47;;;12.80;99.90;;;;;;5023965;28;20034;-64
2022/09/26 13:20:02;;;;;;;5.97;4.22;;;12.90;99.90;;;;;;5028804;28;20048;-63
2022/09/26 13:22:42;;;;;;;5.50;3.70;;;13.00;99.90;;;;;;5030424;28;20083;-63
2022/09/26 13:25:17;;;;;;;5.22;4.15;;;13.00;99.90;;;;;;5032232;28;20034;-63
2022/09/26 13:28:04;;;;;;;5.90;4.18;;;13.00;99.90;;;;;;5032111;28;20041;-64
2022/09/26 13:30:40;;;;;;;5.88;3.92;;;13.20;99.90;;;;;;5032198;28;20041;-63